createdAt,value
2019-05-21T00:00:35.445Z,15.33
2019-05-21T00:03:08.553Z,15.30
2019-05-21T00:05:39.015Z,16.53
2019-05-21T00:08:09.525Z,16.80
2019-05-21T00:10:39.915Z,16.37
2019-05-21T00:13:10.336Z,15.97
2019-05-21T00:15:40.735Z,17.50
2019-05-21T00:18:12.680Z,16.47
2019-05-21T00:20:43.067Z,16.60
2019-05-21T00:23:13.459Z,16.67
2019-05-21T00:25:43.810Z,18.67
2019-05-21T00:28:38.491Z,16.33
2019-05-21T00:31:44.942Z,16.83
2019-05-21T00:34:51.156Z,16.50
2019-05-21T00:37:57.547Z,15.93
2019-05-21T00:41:03.633Z,16.73
2019-05-21T00:43:49.939Z,21.07
2019-05-21T00:46:20.359Z,17.00
2019-05-21T00:48:53.444Z,19.17
2019-05-21T00:51:23.825Z,17.97
2019-05-21T00:53:54.333Z,19.20
2019-05-21T00:56:24.715Z,19.10
2019-05-21T00:58:55.066Z,18.80
2019-05-21T01:01:25.489Z,19.87
2019-05-21T01:03:55.865Z,19.70
2019-05-21T01:06:26.155Z,18.43
2019-05-21T01:08:58.299Z,19.83
2019-05-21T01:11:28.632Z,20.53
2019-05-21T01:13:58.950Z,19.50
2019-05-21T01:16:29.409Z,19.87
2019-05-21T01:19:00.103Z,20.73
2019-05-21T01:21:30.510Z,20.30
2019-05-21T01:24:00.895Z,20.83
2019-05-21T01:26:31.248Z,21.03
2019-05-21T01:29:01.784Z,20.30
2019-05-21T01:31:32.221Z,20.63
2019-05-21T01:34:04.986Z,20.47
2019-05-21T01:36:39.314Z,21.40
2019-05-21T01:39:09.689Z,19.10
2019-05-21T01:41:40.098Z,20.23
2019-05-21T01:44:10.471Z,22.60
2019-05-21T01:46:40.878Z,21.53
2019-05-21T01:49:11.199Z,23.23
2019-05-21T01:51:43.755Z,19.07
2019-05-21T01:54:14.105Z,21.47
2019-05-21T01:56:44.562Z,19.40
2019-05-21T01:59:14.918Z,19.43
2019-05-21T02:01:45.289Z,19.93
2019-05-21T02:04:15.669Z,20.33
2019-05-21T02:06:49.272Z,20.27
2019-05-21T02:09:18.711Z,19.90
2019-05-21T02:11:49.090Z,20.63
2019-05-21T02:14:19.411Z,19.93
2019-05-21T02:16:49.717Z,19.27
2019-05-21T02:19:20.065Z,21.07
2019-05-21T02:21:50.506Z,20.30
2019-05-21T02:24:20.843Z,19.67
2019-05-21T02:26:51.161Z,23.40
2019-05-21T02:29:24.199Z,22.43
2019-05-21T02:31:54.561Z,21.30
2019-05-21T02:34:24.993Z,20.57
2019-05-21T02:36:55.313Z,23.67
2019-05-21T02:39:25.663Z,23.93
2019-05-21T02:41:56.043Z,21.17
2019-05-21T02:44:26.390Z,25.73
2019-05-21T02:46:57.001Z,21.77
2019-05-21T02:49:27.370Z,20.80
2019-05-21T02:51:57.721Z,22.57
2019-05-21T02:54:40.300Z,23.43
2019-05-21T02:57:00.083Z,23.40
2019-05-21T02:59:30.479Z,25.07
2019-05-21T03:02:34.975Z,24.10
2019-05-21T03:05:06.596Z,21.80
2019-05-21T03:07:36.853Z,20.97
2019-05-21T03:10:07.608Z,23.97
2019-05-21T03:12:40.837Z,23.27
2019-05-21T03:15:11.187Z,22.77
2019-05-21T03:17:41.451Z,21.10
2019-05-21T03:20:12.052Z,28.50
2019-05-21T03:22:44.383Z,22.67
2019-05-21T03:25:14.810Z,25.73
2019-05-21T03:27:46.107Z,26.67
2019-05-21T03:30:18.072Z,24.70
2019-05-21T03:32:48.416Z,24.10
2019-05-21T03:35:18.779Z,31.67
2019-05-21T03:37:49.024Z,24.70
2019-05-21T03:40:19.377Z,24.80
2019-05-21T03:42:49.749Z,27.10
2019-05-21T03:45:20.132Z,23.97
2019-05-21T03:47:50.486Z,21.60
2019-05-21T03:50:20.812Z,25.10
2019-05-21T03:52:51.123Z,18.93
2019-05-21T03:55:21.332Z,14.90
2019-05-21T03:57:51.594Z,15.53
2019-05-21T04:00:22.024Z,13.40
2019-05-21T04:02:54.093Z,15.57
2019-05-21T04:05:25.998Z,12.60
2019-05-21T04:07:56.500Z,12.67
2019-05-21T04:10:26.928Z,12.50
2019-05-21T04:13:07.126Z,12.63
2019-05-21T04:16:09.010Z,14.13
2019-05-21T04:18:44.516Z,12.53
2019-05-21T04:21:14.923Z,12.63
2019-05-21T04:23:45.363Z,13.37
2019-05-21T04:26:15.916Z,13.33
2019-05-21T04:28:49.725Z,13.30
2019-05-21T04:31:20.263Z,12.30
2019-05-21T04:33:50.818Z,14.27
2019-05-21T04:36:21.332Z,17.47
2019-05-21T04:38:52.017Z,14.57
2019-05-21T04:41:22.698Z,15.33
2019-05-21T04:43:53.316Z,13.33
2019-05-21T04:46:23.873Z,14.83
2019-05-21T04:48:54.491Z,14.07
2019-05-21T04:51:25.220Z,13.70
2019-05-21T04:53:57.924Z,15.17
2019-05-21T04:56:28.676Z,14.90
2019-05-21T04:58:59.607Z,13.27
2019-05-21T05:01:30.182Z,15.10
2019-05-21T05:04:00.902Z,14.17
2019-05-21T05:06:31.330Z,16.80
2019-05-21T05:09:02.016Z,14.43
2019-05-21T05:11:32.823Z,17.47
2019-05-21T05:14:03.825Z,14.07
2019-05-21T05:16:34.825Z,14.23
2019-05-21T05:19:05.356Z,16.03
2019-05-21T05:21:36.062Z,14.50
2019-05-21T05:24:06.684Z,14.17
2019-05-21T05:26:37.655Z,15.87
2019-05-21T05:29:08.488Z,16.50
2019-05-21T05:31:39.127Z,14.37
2019-05-21T05:34:09.865Z,14.50
2019-05-21T05:36:40.403Z,15.13
2019-05-21T05:39:11.142Z,14.57
2019-05-21T05:41:44.751Z,16.90
2019-05-21T05:44:15.380Z,18.47
2019-05-21T05:46:45.979Z,16.27
2019-05-21T05:49:24.415Z,18.37
2019-05-21T05:51:54.986Z,18.27
2019-05-21T05:54:25.732Z,21.30
2019-05-21T05:56:56.221Z,17.97
2019-05-21T05:59:26.651Z,24.93
2019-05-21T06:01:57.219Z,17.63
2019-05-21T06:04:30.484Z,19.17
2019-05-21T06:07:00.342Z,21.17
2019-05-21T06:09:30.948Z,18.63
2019-05-21T06:12:01.523Z,19.77
2019-05-21T06:14:32.273Z,23.03
2019-05-21T06:17:02.927Z,19.30
2019-05-21T06:19:33.606Z,20.20
2019-05-21T06:22:07.286Z,22.20
2019-05-21T06:24:37.940Z,19.50
2019-05-21T06:27:09.024Z,25.47
2019-05-21T06:29:39.824Z,24.27
2019-05-21T06:32:10.655Z,26.87
2019-05-21T06:34:41.432Z,24.07
2019-05-21T06:37:12.507Z,24.67
2019-05-21T06:39:43.047Z,24.20
2019-05-21T06:42:13.674Z,23.97
2019-05-21T06:44:44.812Z,24.77
2019-05-21T06:47:15.438Z,25.53
2019-05-21T06:49:46.152Z,24.33
2019-05-21T06:52:16.815Z,27.30
2019-05-21T06:54:47.479Z,28.47
2019-05-21T06:57:18.154Z,24.63
2019-05-21T06:59:48.957Z,26.77
2019-05-21T07:02:19.391Z,25.20
2019-05-21T07:04:50.220Z,27.87
2019-05-21T07:07:20.913Z,25.33
2019-05-21T07:09:52.301Z,25.33
2019-05-21T07:12:22.877Z,25.27
2019-05-21T07:14:53.879Z,24.93
2019-05-21T07:17:24.532Z,26.03
2019-05-21T07:19:55.525Z,26.70
2019-05-21T07:22:26.670Z,25.47
2019-05-21T07:24:58.088Z,26.27
2019-05-21T07:27:30.933Z,26.40
2019-05-21T07:30:02.000Z,22.07
2019-05-21T07:32:32.848Z,19.27
2019-05-21T07:35:03.582Z,20.73
2019-05-21T07:37:34.235Z,23.47
2019-05-21T07:40:05.988Z,17.93
2019-05-21T07:42:37.560Z,21.30
2019-05-21T07:45:08.510Z,20.97
2019-05-21T07:47:39.110Z,22.37
2019-05-21T07:50:10.305Z,19.77
2019-05-21T07:52:41.150Z,20.40
2019-05-21T07:55:11.742Z,21.63
2019-05-21T07:57:42.596Z,18.93
2019-05-21T08:00:14.654Z,12.97
2019-05-21T08:02:45.322Z,11.43
2019-05-21T08:05:16.021Z,11.73
2019-05-21T08:07:46.802Z,13.53
2019-05-21T08:10:17.464Z,13.17
2019-05-21T08:12:49.734Z,12.80
2019-05-21T08:15:20.610Z,14.30
2019-05-21T08:17:52.079Z,13.20
2019-05-21T08:20:26.428Z,12.97
2019-05-21T08:22:58.067Z,12.57
2019-05-21T08:25:28.692Z,13.40
2019-05-21T08:27:59.321Z,13.90
2019-05-21T08:30:33.231Z,14.73
2019-05-21T08:33:04.177Z,12.07
2019-05-21T08:35:35.113Z,11.47
2019-05-21T08:38:06.747Z,13.13
2019-05-21T08:40:38.369Z,12.53
2019-05-21T08:43:12.540Z,14.23
2019-05-21T08:45:43.325Z,13.30
2019-05-21T08:48:14.063Z,12.70
2019-05-21T08:50:44.633Z,15.20
2019-05-21T08:53:15.135Z,14.83
2019-05-21T08:55:45.997Z,13.90
2019-05-21T08:58:16.738Z,15.10
2019-05-21T09:00:47.322Z,16.83
2019-05-21T09:03:17.971Z,13.80
2019-05-21T09:05:48.637Z,13.87
2019-05-21T09:08:19.208Z,14.20
2019-05-21T09:10:50.263Z,12.87
2019-05-21T09:13:23.802Z,14.47
2019-05-21T09:15:54.525Z,15.73
2019-05-21T09:18:25.406Z,14.63
2019-05-21T09:20:56.223Z,15.40
2019-05-21T09:23:29.754Z,14.50
2019-05-21T09:26:00.579Z,13.40
2019-05-21T09:28:31.289Z,13.03
2019-05-21T09:31:02.341Z,14.03
2019-05-21T09:33:33.105Z,13.70
2019-05-21T09:36:03.873Z,13.40
2019-05-21T09:38:34.286Z,14.10
2019-05-21T09:41:08.319Z,11.40
2019-05-21T09:43:39.124Z,12.40
2019-05-21T09:46:09.733Z,12.67
2019-05-21T09:48:40.612Z,13.33
2019-05-21T09:51:19.496Z,12.50
2019-05-21T09:53:43.983Z,12.60
2019-05-21T09:56:32.488Z,12.30
2019-05-21T09:59:12.124Z,12.70
2019-05-21T10:01:47.828Z,11.57
2019-05-21T10:04:18.337Z,11.20
2019-05-21T10:06:49.190Z,11.83
2019-05-21T10:09:20.587Z,11.97
2019-05-21T10:11:52.972Z,11.87
2019-05-21T10:14:25.556Z,12.83
2019-05-21T10:16:56.148Z,10.90
2019-05-21T10:19:26.739Z,10.60
2019-05-21T10:21:57.387Z,11.20
2019-05-21T10:24:28.136Z,12.10
2019-05-21T10:26:58.864Z,9.43
2019-05-21T10:29:29.551Z,9.70
2019-05-21T10:32:00.066Z,10.50
2019-05-21T10:34:30.717Z,11.20
2019-05-21T10:37:01.236Z,10.23
2019-05-21T10:39:32.019Z,9.87
2019-05-21T10:42:04.720Z,10.33
2019-05-21T10:44:38.118Z,10.50
2019-05-21T10:47:08.831Z,11.40
2019-05-21T10:49:39.654Z,12.30
2019-05-21T10:52:10.090Z,13.17
2019-05-21T10:54:40.722Z,12.50
2019-05-21T10:57:11.324Z,13.67
2019-05-21T10:59:45.362Z,14.33
2019-05-21T11:02:28.441Z,14.07
2019-05-21T11:05:02.479Z,17.57
2019-05-21T11:07:33.077Z,16.10
2019-05-21T11:10:03.693Z,18.47
2019-05-21T11:12:34.231Z,16.80
2019-05-21T11:15:05.588Z,17.17
2019-05-21T11:17:53.325Z,17.00
2019-05-21T11:20:11.098Z,20.40
2019-05-21T11:22:44.489Z,18.53
2019-05-21T11:25:15.567Z,17.80
2019-05-21T11:27:46.110Z,17.83
2019-05-21T11:30:16.671Z,19.00
2019-05-21T11:32:48.025Z,16.03
2019-05-21T11:35:19.020Z,16.60
2019-05-21T11:37:49.722Z,18.23
2019-05-21T11:40:21.935Z,16.47
2019-05-21T11:42:53.322Z,17.97
2019-05-21T11:45:32.149Z,17.63
2019-05-21T11:47:56.795Z,16.83
2019-05-21T11:50:27.407Z,16.20
2019-05-21T11:52:58.246Z,16.20
2019-05-21T11:55:28.754Z,15.37
2019-05-21T11:57:59.220Z,16.73
2019-05-21T12:00:30.118Z,16.83
2019-05-21T12:03:00.653Z,14.57
2019-05-21T12:05:31.271Z,14.87
2019-05-21T12:08:01.705Z,13.63
2019-05-21T12:10:32.592Z,11.40
2019-05-21T12:13:03.200Z,13.20
2019-05-21T12:15:35.341Z,11.20
2019-05-21T12:18:05.913Z,11.53
2019-05-21T12:20:37.503Z,12.27
2019-05-21T12:23:09.014Z,11.03
2019-05-21T12:25:39.616Z,12.50
2019-05-21T12:28:11.333Z,12.73
2019-05-21T12:30:42.474Z,13.83
2019-05-21T12:33:13.017Z,11.60
2019-05-21T12:35:43.669Z,12.17
2019-05-21T12:38:14.214Z,14.17
2019-05-21T12:40:47.838Z,14.17
2019-05-21T12:43:18.408Z,15.23
2019-05-21T12:45:48.971Z,14.70
2019-05-21T12:48:21.313Z,18.43
2019-05-21T12:50:51.540Z,17.70
2019-05-21T12:53:23.419Z,19.37
2019-05-21T12:55:53.956Z,22.40
2019-05-21T12:58:25.468Z,19.63
2019-05-21T13:00:55.914Z,23.70
2019-05-21T13:03:26.386Z,22.73
2019-05-21T13:05:56.969Z,21.57
2019-05-21T13:08:27.494Z,24.77
2019-05-21T13:10:58.096Z,22.73
2019-05-21T13:13:29.045Z,26.23
2019-05-21T13:15:59.605Z,28.20
2019-05-21T13:18:30.177Z,27.47
2019-05-21T13:21:00.795Z,28.63
2019-05-21T13:23:31.730Z,26.27
2019-05-21T13:26:02.305Z,28.60
2019-05-21T13:28:33.199Z,26.50
2019-05-21T13:31:04.168Z,26.30
2019-05-21T13:33:35.326Z,29.10
2019-05-21T13:36:06.653Z,28.57
2019-05-21T13:38:39.492Z,31.13
2019-05-21T13:41:12.399Z,29.87
2019-05-21T13:43:43.148Z,30.27
2019-05-21T13:46:14.197Z,28.60
2019-05-21T13:48:50.649Z,30.17
2019-05-21T13:51:23.683Z,25.80
2019-05-21T13:53:54.814Z,25.50
2019-05-21T13:56:26.329Z,25.23
2019-05-21T13:58:57.672Z,26.17
2019-05-21T14:01:40.014Z,24.43
2019-05-21T14:04:01.967Z,25.43
2019-05-21T14:06:33.229Z,24.67
2019-05-21T14:09:05.543Z,23.70
2019-05-21T14:11:36.567Z,25.03
2019-05-21T14:14:07.516Z,22.27
2019-05-21T14:16:38.441Z,23.47
2019-05-21T14:19:12.369Z,24.17
2019-05-21T14:21:43.139Z,25.13
2019-05-21T14:24:14.801Z,23.10
2019-05-21T14:26:45.576Z,27.23
2019-05-21T14:29:16.566Z,25.67
2019-05-21T14:31:47.440Z,29.10
2019-05-21T14:34:18.103Z,27.47
2019-05-21T14:36:49.245Z,27.67
2019-05-21T14:39:22.890Z,29.80
2019-05-21T14:41:58.952Z,26.93
2019-05-21T14:44:30.950Z,27.27
2019-05-21T14:47:03.633Z,25.23
2019-05-21T14:49:34.352Z,28.37
2019-05-21T14:52:05.883Z,31.90
2019-05-21T14:54:36.677Z,26.13
2019-05-21T14:57:12.607Z,25.33
2019-05-21T14:59:43.400Z,25.10
2019-05-21T15:02:15.604Z,27.40
2019-05-21T15:04:46.491Z,27.10
2019-05-21T15:07:17.333Z,26.03
2019-05-21T15:09:48.139Z,26.73
2019-05-21T15:12:19.063Z,24.70
2019-05-21T15:14:49.680Z,25.10
2019-05-21T15:17:23.289Z,25.30
2019-05-21T15:19:55.839Z,23.83
2019-05-21T15:22:27.267Z,22.87
2019-05-21T15:24:57.957Z,23.00
2019-05-21T15:27:31.771Z,24.80
2019-05-21T15:30:02.547Z,22.30
2019-05-21T15:32:33.241Z,21.37
2019-05-21T15:35:04.229Z,20.97
2019-05-21T15:37:35.217Z,23.13
2019-05-21T15:40:06.459Z,20.10
2019-05-21T15:42:37.084Z,18.93
2019-05-21T15:45:08.599Z,19.13
2019-05-21T15:47:39.989Z,17.10
2019-05-21T15:50:11.068Z,16.87
2019-05-21T15:52:42.036Z,17.77
2019-05-21T15:55:13.100Z,15.80
2019-05-21T15:57:43.913Z,20.40
2019-05-21T16:00:16.904Z,14.50
2019-05-21T16:02:51.503Z,16.67
2019-05-21T16:05:20.743Z,15.60
2019-05-21T16:07:51.499Z,15.37
2019-05-21T16:10:22.250Z,15.00
2019-05-21T16:12:54.360Z,16.13
2019-05-21T16:15:25.628Z,15.20
2019-05-21T16:17:56.269Z,17.40
2019-05-21T16:20:29.902Z,17.13
2019-05-21T16:23:00.844Z,18.97
2019-05-21T16:25:31.626Z,18.07
2019-05-21T16:28:02.412Z,18.67
2019-05-21T16:30:33.294Z,16.53
2019-05-21T16:33:09.137Z,16.67
2019-05-21T16:35:39.999Z,18.07
2019-05-21T16:38:11.455Z,17.03
2019-05-21T16:40:42.101Z,16.40
2019-05-21T16:43:12.790Z,17.93
2019-05-21T16:45:44.999Z,16.53
2019-05-21T16:48:15.787Z,17.20
2019-05-21T16:50:48.478Z,16.37
2019-05-21T16:53:19.284Z,16.30
2019-05-21T16:55:50.124Z,17.47
2019-05-21T16:58:26.826Z,15.53
2019-05-21T17:00:58.191Z,14.53
2019-05-21T17:03:32.560Z,14.03
2019-05-21T17:06:03.968Z,14.40
2019-05-21T17:08:34.714Z,14.17
2019-05-21T17:11:05.563Z,15.93
2019-05-21T17:13:36.408Z,14.23
2019-05-21T17:16:08.096Z,14.57
2019-05-21T17:18:39.152Z,14.37
2019-05-21T17:21:10.525Z,13.40
2019-05-21T17:23:41.416Z,13.07
2019-05-21T17:26:14.750Z,14.00
2019-05-21T17:28:46.265Z,14.80
2019-05-21T17:31:17.061Z,13.27
2019-05-21T17:33:48.195Z,13.50
2019-05-21T17:36:18.820Z,14.73
2019-05-21T17:38:49.672Z,14.47
2019-05-21T17:41:20.863Z,12.17
2019-05-21T17:43:51.912Z,14.00
2019-05-21T17:46:22.964Z,12.93
2019-05-21T17:48:54.553Z,13.47
2019-05-21T17:51:25.972Z,15.93
2019-05-21T17:53:57.542Z,14.13
2019-05-21T17:56:28.597Z,15.03
2019-05-21T17:58:59.355Z,13.80
2019-05-21T18:01:31.479Z,14.50
2019-05-21T18:04:02.684Z,13.40
2019-05-21T18:06:34.673Z,13.67
2019-05-21T18:09:09.336Z,13.83
2019-05-21T18:11:40.236Z,14.77
2019-05-21T18:14:11.752Z,15.43
2019-05-21T18:16:43.086Z,14.30
2019-05-21T18:19:14.824Z,16.37
2019-05-21T18:21:46.075Z,19.00
2019-05-21T18:24:18.571Z,15.37
2019-05-21T18:26:49.134Z,15.43
2019-05-21T18:29:19.740Z,18.00
2019-05-21T18:31:50.635Z,19.40
2019-05-21T18:34:25.712Z,15.30
2019-05-21T18:36:58.166Z,16.10
2019-05-21T18:39:30.679Z,17.10
2019-05-21T18:42:01.272Z,16.20
2019-05-21T18:44:32.376Z,16.07
2019-05-21T18:47:03.146Z,14.57
2019-05-21T18:49:33.713Z,18.17
2019-05-21T18:52:07.348Z,17.40
2019-05-21T18:54:38.342Z,16.83
2019-05-21T18:57:08.933Z,16.97
2019-05-21T18:59:39.968Z,17.43
2019-05-21T19:02:12.420Z,19.37
2019-05-21T19:04:42.717Z,19.00
2019-05-21T19:07:14.118Z,19.03
2019-05-21T19:09:44.464Z,19.43
2019-05-21T19:12:15.249Z,17.60
2019-05-21T19:14:51.374Z,19.43
2019-05-21T19:17:34.850Z,23.03
2019-05-21T19:19:53.637Z,26.57
2019-05-21T19:22:27.439Z,30.83
2019-05-21T19:24:56.497Z,27.30
2019-05-21T19:27:27.186Z,26.17
2019-05-21T19:29:57.724Z,28.97
2019-05-21T19:32:31.230Z,24.10
2019-05-21T19:35:01.662Z,27.33
2019-05-21T19:37:34.929Z,27.87
2019-05-21T19:40:05.700Z,24.50
2019-05-21T19:42:53.466Z,25.53
2019-05-21T19:45:08.856Z,24.83
2019-05-21T19:47:41.291Z,24.13
2019-05-21T19:50:12.540Z,24.60
2019-05-21T19:52:43.161Z,24.97
2019-05-21T19:55:13.794Z,25.40
2019-05-21T19:57:44.049Z,26.37
2019-05-21T20:00:20.973Z,25.13
2019-05-21T20:02:51.639Z,21.80
2019-05-21T20:05:22.355Z,24.80
2019-05-21T20:07:52.740Z,23.27
2019-05-21T20:10:23.642Z,24.43
2019-05-21T20:12:53.970Z,23.00
2019-05-21T20:15:25.082Z,25.73
2019-05-21T20:18:07.053Z,25.27
2019-05-21T20:20:27.971Z,25.37
2019-05-21T20:22:58.506Z,23.10
2019-05-21T20:25:31.065Z,25.33
2019-05-21T20:28:01.601Z,23.23
2019-05-21T20:30:33.587Z,25.30
2019-05-21T20:33:06.117Z,26.83
2019-05-21T20:35:38.224Z,24.17
2019-05-21T20:38:10.451Z,24.77
2019-05-21T20:40:41.727Z,26.03
2019-05-21T20:43:12.090Z,24.60
2019-05-21T20:45:45.666Z,22.17
2019-05-21T20:48:18.786Z,26.53
2019-05-21T20:50:49.394Z,24.40
2019-05-21T20:53:20.408Z,28.43
2019-05-21T20:55:51.221Z,25.33
2019-05-21T20:58:21.725Z,25.20
2019-05-21T21:00:53.667Z,23.57
2019-05-21T21:03:24.750Z,24.40
2019-05-21T21:05:55.517Z,24.53
2019-05-21T21:08:27.905Z,23.53
2019-05-21T21:10:58.459Z,26.90
2019-05-21T21:13:29.960Z,22.73
2019-05-21T21:16:00.286Z,27.63
2019-05-21T21:18:31.024Z,25.97
2019-05-21T21:21:01.389Z,25.03
2019-05-21T21:23:33.026Z,24.13
2019-05-21T21:26:04.741Z,21.97
2019-05-21T21:28:35.166Z,20.87
2019-05-21T21:31:06.035Z,23.93
2019-05-21T21:33:36.422Z,24.43
2019-05-21T21:36:07.206Z,23.17
2019-05-21T21:38:38.791Z,28.40
2019-05-21T21:41:09.203Z,25.80
2019-05-21T21:43:40.212Z,27.33
2019-05-21T21:46:11.227Z,25.23
2019-05-21T21:48:45.492Z,27.17
2019-05-21T21:51:17.685Z,27.80
2019-05-21T21:53:50.153Z,31.27
2019-05-21T21:56:20.865Z,29.60
2019-05-21T21:58:51.758Z,28.67
2019-05-21T22:01:51.196Z,30.33
2019-05-21T22:04:25.391Z,30.57
2019-05-21T22:06:56.430Z,29.13
2019-05-21T22:09:29.850Z,30.53
2019-05-21T22:12:02.497Z,30.27
2019-05-21T22:14:49.474Z,29.90
2019-05-21T22:17:10.190Z,32.83
2019-05-21T22:19:41.536Z,30.47
2019-05-21T22:22:14.083Z,34.03
2019-05-21T22:24:44.638Z,30.70
2019-05-21T22:27:16.077Z,26.67
2019-05-21T22:29:46.651Z,28.83
2019-05-21T22:32:19.426Z,27.13
2019-05-21T22:34:50.041Z,26.73
2019-05-21T22:37:23.564Z,24.77
2019-05-21T22:39:54.859Z,25.57
2019-05-21T22:42:25.770Z,21.63
2019-05-21T22:45:07.421Z,25.53
2019-05-21T22:47:28.377Z,25.80
2019-05-21T22:49:58.721Z,23.73
2019-05-21T22:52:29.191Z,29.60
2019-05-21T22:54:59.767Z,23.83
2019-05-21T22:57:30.405Z,28.73
2019-05-21T23:00:01.199Z,27.40
2019-05-21T23:02:34.966Z,27.53
2019-05-21T23:05:05.754Z,30.03
2019-05-21T23:07:38.732Z,24.90
2019-05-21T23:10:12.044Z,26.73
2019-05-21T23:12:47.824Z,23.37
2019-05-21T23:15:25.032Z,26.17
2019-05-21T23:17:51.589Z,28.13
2019-05-21T23:20:24.044Z,29.60
2019-05-21T23:22:56.962Z,28.60
2019-05-21T23:25:28.915Z,25.33
2019-05-21T23:28:00.022Z,28.27
2019-05-21T23:30:30.732Z,25.13
2019-05-21T23:33:01.548Z,26.80
2019-05-21T23:35:33.053Z,33.60
2019-05-21T23:38:04.020Z,27.83
2019-05-21T23:40:34.727Z,24.90
2019-05-21T23:43:06.077Z,29.07
2019-05-21T23:45:36.439Z,28.73
2019-05-21T23:48:10.160Z,30.90
2019-05-21T23:50:40.515Z,29.53
2019-05-21T23:53:11.343Z,26.70
2019-05-21T23:55:42.626Z,29.93
2019-05-21T23:58:13.125Z,31.40
